Terminal Aerodrome Forecast
Issued by NWS Bismarck, ND

Home | Current Version | Previous Version | Text Only | Print | Product List | Glossary On
Versions: 1 2 3 4 5 6 7 8 9 10 11 12 13 14 15 16 17 18 19 20 21 22 23 24 25
000
FTUS43 KBIS 131140
TAFISN
TAF
KISN 131140Z 1312/1412 32019G25KT P6SM SCT200
     FM131700 32016G22KT P6SM BKN030
     FM131900 32015G22KT P6SM BKN035
     FM132200 32013KT P6SM OVC200
     FM140600 31014KT 3SM -SN BR OVC018=

USA.gov is the U.S. government's official web portal to all federal, state and local government web resources and services.